createdAt,value
2022-09-28T00:00:59.167Z,11.65
2022-09-28T00:03:25.673Z,13.77
2022-09-28T00:05:52.066Z,18.33
2022-09-28T00:08:18.699Z,12.27
2022-09-28T00:10:46.312Z,15.88
2022-09-28T00:13:12.723Z,13.18
2022-09-28T00:15:39.203Z,11.73
2022-09-28T00:18:05.690Z,11.48
2022-09-28T00:20:32.109Z,11.70
2022-09-28T00:22:58.666Z,10.65
2022-09-28T00:25:25.149Z,12.88
2022-09-28T00:27:51.617Z,11.98
2022-09-28T00:30:18.219Z,10.40
2022-09-28T00:32:44.597Z,12.95
2022-09-28T00:35:11.053Z,15.15
2022-09-28T00:37:37.478Z,14.18
2022-09-28T00:40:04.241Z,15.05
2022-09-28T00:42:30.659Z,16.30
2022-09-28T00:44:58.397Z,14.82
2022-09-28T00:47:37.972Z,16.95
2022-09-28T00:50:28.809Z,21.65
2022-09-28T00:53:14.495Z,15.75
2022-09-28T00:55:54.773Z,22.20
2022-09-28T00:58:27.451Z,24.73
2022-09-28T01:00:56.327Z,23.05
2022-09-28T01:03:23.124Z,24.35
2022-09-28T01:05:51.651Z,24.42
2022-09-28T01:08:21.090Z,25.52
2022-09-28T01:10:48.985Z,23.75
2022-09-28T01:13:17.841Z,27.27
2022-09-28T01:16:01.335Z,26.90
2022-09-28T01:18:36.477Z,26.58
2022-09-28T01:21:16.656Z,27.70
2022-09-28T01:24:09.605Z,27.88
2022-09-28T01:26:54.457Z,33.97
2022-09-28T01:29:36.963Z,25.98
2022-09-28T01:32:16.988Z,25.20
2022-09-28T01:35:06.161Z,23.92
2022-09-28T01:37:49.257Z,26.67
2022-09-28T01:40:16.591Z,23.60
2022-09-28T01:42:46.810Z,23.17
2022-09-28T01:45:23.559Z,28.13
2022-09-28T01:47:50.929Z,22.35
2022-09-28T01:50:22.473Z,24.88
2022-09-28T01:52:57.877Z,19.63
2022-09-28T01:55:27.681Z,23.00
2022-09-28T01:58:17.625Z,21.60
2022-09-28T02:00:49.311Z,22.38
2022-09-28T02:03:20.497Z,24.23
2022-09-28T02:05:54.761Z,24.30
2022-09-28T02:08:35.114Z,21.05
2022-09-28T02:11:15.765Z,22.83
2022-09-28T02:13:46.985Z,20.85
2022-09-28T02:19:01.016Z,22.67
2022-09-28T02:21:46.213Z,19.77
2022-09-28T02:24:21.531Z,26.05
2022-09-28T02:26:49.930Z,20.77
2022-09-28T02:29:16.941Z,21.83
2022-09-28T02:31:43.874Z,19.35
2022-09-28T02:34:10.414Z,18.88
2022-09-28T02:36:37.208Z,23.48
2022-09-28T02:39:03.685Z,20.05
2022-09-28T02:42:32.253Z,22.05
2022-09-28T02:45:16.430Z,19.73
2022-09-28T02:48:04.494Z,20.92
2022-09-28T02:50:57.479Z,20.20
2022-09-28T02:53:50.053Z,20.45
2022-09-28T02:56:25.589Z,24.13
2022-09-28T02:59:22.240Z,19.95
2022-09-28T03:02:16.867Z,21.58
2022-09-28T03:04:53.785Z,20.75
2022-09-28T03:07:29.888Z,20.95
2022-09-28T03:10:11.842Z,27.85
2022-09-28T03:12:39.456Z,21.58
2022-09-28T03:15:11.134Z,22.90
2022-09-28T03:17:37.860Z,21.20
2022-09-28T03:20:05.540Z,21.67
2022-09-28T03:22:31.982Z,20.23
2022-09-28T03:24:58.375Z,22.80
2022-09-28T03:27:24.747Z,22.45
2022-09-28T03:29:54.217Z,20.52
2022-09-28T03:32:20.627Z,19.58
2022-09-28T03:34:47.143Z,17.27
2022-09-28T03:37:13.573Z,17.52
2022-09-28T03:39:39.953Z,18.70
2022-09-28T03:42:06.614Z,18.67
2022-09-28T03:44:33.039Z,14.82
2022-09-28T03:46:59.514Z,15.05
2022-09-28T03:49:25.950Z,12.93
2022-09-28T03:51:52.372Z,15.35
2022-09-28T03:54:19.039Z,13.90
2022-09-28T03:56:45.497Z,15.15
2022-09-28T03:59:11.938Z,12.73
2022-09-28T04:01:38.505Z,12.18
2022-09-28T04:04:05.337Z,12.60
2022-09-28T04:06:31.771Z,11.82
2022-09-28T04:08:58.319Z,11.20
2022-09-28T04:11:24.752Z,11.38
2022-09-28T04:13:51.160Z,10.82
2022-09-28T04:16:18.522Z,11.25
2022-09-28T04:18:45.021Z,10.05
2022-09-28T04:21:12.902Z,8.07
2022-09-28T04:23:40.002Z,9.57
2022-09-28T04:26:10.279Z,9.27
2022-09-28T04:28:55.166Z,8.35
2022-09-28T04:31:23.501Z,8.57
2022-09-28T04:33:50.084Z,8.23
2022-09-28T04:36:16.598Z,8.65
2022-09-28T04:38:53.264Z,9.52
2022-09-28T04:41:22.392Z,12.40
2022-09-28T04:43:49.732Z,11.18
2022-09-28T04:46:16.786Z,9.70
2022-09-28T04:48:43.272Z,8.10
2022-09-28T04:51:09.703Z,7.68
2022-09-28T04:53:36.160Z,8.02
2022-09-28T04:56:08.019Z,7.18
2022-09-28T04:58:35.478Z,7.93
2022-09-28T05:01:06.726Z,8.52
2022-09-28T05:06:01.421Z,8.60
2022-09-28T05:08:28.423Z,10.40
2022-09-28T05:10:59.758Z,10.32
2022-09-28T05:13:27.476Z,8.75
2022-09-28T05:15:58.826Z,8.93
2022-09-28T05:18:26.200Z,8.30
2022-09-28T05:20:52.664Z,8.77
2022-09-28T05:23:19.376Z,15.55
2022-09-28T05:25:45.878Z,7.95
2022-09-28T05:28:12.291Z,8.57
2022-09-28T05:30:38.935Z,8.82
2022-09-28T05:33:05.423Z,13.88
2022-09-28T05:35:31.883Z,9.82
2022-09-28T05:38:04.387Z,12.25
2022-09-28T05:40:31.425Z,7.95
2022-09-28T05:43:02.111Z,10.38
2022-09-28T05:45:29.403Z,11.02
2022-09-28T05:47:56.654Z,9.02
2022-09-28T05:50:23.390Z,8.40
2022-09-28T05:53:07.169Z,11.38
2022-09-28T05:55:35.329Z,12.43
2022-09-28T05:58:04.237Z,9.70
2022-09-28T06:00:32.380Z,8.73
2022-09-28T06:03:09.194Z,11.70
2022-09-28T06:05:36.839Z,10.32
2022-09-28T06:08:05.179Z,8.18
2022-09-28T06:10:32.812Z,8.27
2022-09-28T06:12:59.391Z,10.27
2022-09-28T06:15:28.634Z,8.82
2022-09-28T06:17:58.993Z,8.20
2022-09-28T06:20:31.139Z,8.93
2022-09-28T06:22:57.515Z,9.70
2022-09-28T06:25:24.903Z,8.10
2022-09-28T06:27:55.356Z,8.48
2022-09-28T06:30:24.146Z,9.68
2022-09-28T06:32:53.771Z,9.75
2022-09-28T06:35:21.375Z,12.32
2022-09-28T06:37:48.177Z,9.90
2022-09-28T06:40:15.175Z,8.55
2022-09-28T06:42:41.734Z,7.30
2022-09-28T06:45:08.498Z,8.07
2022-09-28T06:47:35.292Z,11.18
2022-09-28T06:50:01.769Z,10.15
2022-09-28T06:52:28.167Z,9.45
2022-09-28T06:54:54.560Z,10.30
2022-09-28T06:57:20.937Z,7.93
2022-09-28T06:59:47.348Z,8.85
2022-09-28T07:02:14.455Z,10.40
2022-09-28T07:04:42.542Z,7.25
2022-09-28T07:07:10.582Z,9.98
2022-09-28T07:09:42.228Z,10.07
2022-09-28T07:12:13.119Z,7.85
2022-09-28T07:14:47.889Z,7.77
2022-09-28T07:17:15.130Z,13.57
2022-09-28T07:19:42.145Z,6.78
2022-09-28T07:22:08.550Z,5.97
2022-09-28T07:24:35.157Z,6.35
2022-09-28T07:27:05.027Z,8.52
2022-09-28T07:29:31.398Z,8.48
2022-09-28T07:31:57.799Z,7.72
2022-09-28T07:34:24.241Z,7.40
2022-09-28T07:36:51.868Z,7.97
2022-09-28T07:39:18.271Z,6.10
2022-09-28T07:41:44.677Z,6.90
2022-09-28T07:44:11.256Z,7.32
2022-09-28T07:46:38.052Z,7.85
2022-09-28T07:49:09.949Z,9.52
2022-09-28T07:51:38.779Z,5.85
2022-09-28T07:54:06.490Z,8.95
2022-09-28T07:56:34.760Z,5.30
2022-09-28T07:59:01.278Z,4.95
2022-09-28T08:01:27.909Z,4.82
2022-09-28T08:03:56.196Z,6.50
2022-09-28T08:06:23.224Z,5.57
2022-09-28T08:08:50.289Z,6.60
2022-09-28T08:11:18.699Z,6.53
2022-09-28T08:13:46.399Z,5.75
2022-09-28T08:16:13.576Z,6.85
2022-09-28T08:18:40.170Z,5.82
2022-09-28T08:21:25.137Z,6.47
2022-09-28T08:23:51.868Z,5.50
2022-09-28T08:26:18.321Z,5.07
2022-09-28T08:28:46.661Z,5.88
2022-09-28T08:31:13.309Z,5.70
2022-09-28T08:33:42.035Z,4.88
2022-09-28T08:36:10.179Z,4.95
2022-09-28T08:38:36.596Z,5.32
2022-09-28T08:41:15.497Z,5.68
2022-09-28T08:44:00.613Z,6.07
2022-09-28T08:46:33.529Z,6.88
2022-09-28T08:49:38.990Z,5.75
2022-09-28T08:52:11.833Z,5.75
2022-09-28T08:54:46.031Z,4.75
2022-09-28T08:57:19.007Z,5.43
2022-09-28T08:59:54.125Z,5.68
2022-09-28T09:02:27.281Z,5.50
2022-09-28T09:04:54.674Z,7.68
2022-09-28T09:07:24.096Z,7.82
2022-09-28T09:10:08.719Z,5.32
2022-09-28T09:12:48.758Z,4.60
2022-09-28T09:15:43.293Z,3.60
2022-09-28T09:18:22.346Z,4.00
2022-09-28T09:20:56.392Z,4.70
2022-09-28T09:23:37.185Z,8.90
2022-09-28T09:26:24.609Z,4.10
2022-09-28T09:29:13.718Z,4.88
2022-09-28T09:31:50.592Z,6.80
2022-09-28T09:34:45.090Z,4.32
2022-09-28T09:37:48.076Z,10.23
2022-09-28T09:40:30.623Z,6.13
2022-09-28T09:43:10.693Z,5.78
2022-09-28T09:45:59.467Z,6.10
2022-09-28T09:48:46.684Z,6.03
2022-09-28T09:51:24.905Z,12.45
2022-09-28T09:53:59.986Z,3.70
2022-09-28T09:56:34.513Z,7.78
2022-09-28T09:59:24.419Z,5.28
2022-09-28T10:01:53.424Z,6.15
2022-09-28T10:04:35.005Z,9.02
2022-09-28T10:07:05.671Z,4.05
2022-09-28T10:09:42.835Z,3.70
2022-09-28T10:12:12.124Z,5.85
2022-09-28T10:14:38.569Z,6.07
2022-09-28T10:17:05.341Z,6.47
2022-09-28T10:19:33.603Z,25.27
2022-09-28T10:22:04.413Z,7.05
2022-09-28T10:24:42.191Z,6.55
2022-09-28T10:27:14.830Z,8.02
2022-09-28T10:30:10.318Z,8.02
2022-09-28T10:32:40.062Z,5.47
2022-09-28T10:35:18.711Z,6.03
2022-09-28T10:37:52.183Z,6.72
2022-09-28T10:40:40.049Z,10.23
2022-09-28T10:43:18.284Z,5.28
2022-09-28T10:45:45.001Z,4.95
2022-09-28T10:48:20.877Z,5.00
2022-09-28T10:51:05.583Z,7.43
2022-09-28T10:53:32.150Z,4.93
2022-09-28T10:56:04.792Z,5.40
2022-09-28T10:58:40.389Z,8.65
2022-09-28T11:01:11.459Z,6.45
2022-09-28T11:03:56.330Z,6.55
2022-09-28T11:06:36.890Z,10.38
2022-09-28T11:09:07.354Z,5.43
2022-09-28T11:11:41.885Z,9.30
2022-09-28T11:14:21.136Z,5.78
2022-09-28T11:16:47.589Z,6.68
2022-09-28T11:19:20.609Z,5.00
2022-09-28T11:21:47.022Z,9.75
2022-09-28T11:24:19.036Z,16.17
2022-09-28T11:26:49.547Z,7.20
2022-09-28T11:29:41.618Z,4.37
2022-09-28T11:32:12.494Z,4.70
2022-09-28T11:34:59.019Z,5.15
2022-09-28T11:37:57.647Z,6.55
2022-09-28T11:40:47.916Z,8.10
2022-09-28T11:43:36.144Z,8.37
2022-09-28T11:46:20.490Z,6.13
2022-09-28T11:48:55.392Z,8.65
2022-09-28T11:51:27.464Z,7.97
2022-09-28T11:53:59.594Z,7.68
2022-09-28T11:56:28.701Z,16.50
2022-09-28T11:59:18.027Z,9.73
2022-09-28T12:01:49.309Z,14.40
2022-09-28T12:04:18.591Z,10.32
2022-09-28T12:06:52.040Z,7.03
2022-09-28T12:09:37.964Z,6.40
2022-09-28T12:12:17.099Z,8.73
2022-09-28T12:14:45.538Z,8.63
2022-09-28T12:17:26.625Z,9.50
2022-09-28T12:22:31.520Z,4.28
2022-09-28T12:24:59.215Z,6.50
2022-09-28T12:27:38.539Z,5.80
2022-09-28T12:30:13.994Z,9.18
2022-09-28T12:32:49.320Z,5.50
2022-09-28T12:35:52.844Z,7.15
2022-09-28T12:39:17.574Z,8.20
2022-09-28T12:42:11.042Z,7.88
2022-09-28T12:44:59.845Z,6.13
2022-09-28T12:47:59.798Z,9.52
2022-09-28T12:51:09.157Z,5.50
2022-09-28T12:54:02.735Z,6.38
2022-09-28T12:56:50.066Z,8.38
2022-09-28T12:59:25.250Z,8.55
2022-09-28T13:01:57.364Z,8.70
2022-09-28T13:04:39.124Z,5.10
2022-09-28T13:07:08.672Z,9.38
2022-09-28T13:10:06.242Z,5.88
2022-09-28T13:12:38.520Z,5.88
2022-09-28T13:15:29.259Z,5.47
2022-09-28T13:18:17.225Z,6.63
2022-09-28T13:21:26.193Z,5.47
2022-09-28T13:24:08.788Z,7.60
2022-09-28T13:26:46.188Z,7.45
2022-09-28T13:29:15.915Z,19.55
2022-09-28T13:31:55.250Z,7.72
2022-09-28T13:34:26.245Z,6.90
2022-09-28T13:39:58.865Z,9.20
2022-09-28T13:42:44.155Z,5.80
2022-09-28T13:45:22.906Z,9.50
2022-09-28T13:47:52.422Z,7.03
2022-09-28T13:50:37.488Z,8.50
2022-09-28T13:53:25.586Z,7.25
2022-09-28T13:56:29.748Z,7.10
2022-09-28T13:59:22.783Z,8.68
2022-09-28T14:02:22.973Z,8.57
2022-09-28T14:04:54.930Z,7.65
2022-09-28T14:07:46.118Z,7.22
2022-09-28T14:10:20.880Z,13.02
2022-09-28T14:12:54.889Z,9.15
2022-09-28T14:15:30.234Z,8.80
2022-09-28T14:18:21.270Z,6.80
2022-09-28T14:21:02.881Z,7.03
2022-09-28T14:23:38.166Z,8.95
2022-09-28T14:26:41.884Z,11.07
2022-09-28T14:29:28.611Z,7.63
2022-09-28T14:31:58.213Z,5.75
2022-09-28T14:34:43.468Z,7.07
2022-09-28T14:37:49.620Z,9.60
2022-09-28T14:40:49.624Z,10.35
2022-09-28T14:43:35.254Z,6.30
2022-09-28T14:46:11.264Z,8.20
2022-09-28T14:49:22.865Z,7.95
2022-09-28T14:51:55.854Z,10.55
2022-09-28T14:54:24.501Z,7.93
2022-09-28T14:56:54.117Z,7.32
2022-09-28T14:59:25.741Z,12.55
2022-09-28T15:02:01.256Z,8.35
2022-09-28T15:04:30.704Z,6.40
2022-09-28T15:07:01.192Z,7.50
2022-09-28T15:09:30.650Z,8.52
2022-09-28T15:12:00.700Z,12.25
2022-09-28T15:14:32.834Z,6.70
2022-09-28T15:17:02.854Z,11.30
2022-09-28T15:19:41.375Z,7.17
2022-09-28T15:22:16.384Z,11.60
2022-09-28T15:24:46.398Z,15.57
2022-09-28T15:27:18.980Z,11.80
2022-09-28T15:30:03.197Z,9.43
2022-09-28T15:32:31.661Z,10.00
2022-09-28T15:35:11.747Z,15.75
2022-09-28T15:37:40.649Z,7.28
2022-09-28T15:40:14.916Z,15.73
2022-09-28T15:42:41.455Z,9.00
2022-09-28T15:45:13.625Z,8.38
2022-09-28T15:47:41.632Z,8.50
2022-09-28T15:50:21.956Z,14.25
2022-09-28T15:52:57.257Z,9.75
2022-09-28T15:55:44.121Z,16.02
2022-09-28T15:58:16.552Z,10.52
2022-09-28T16:00:45.084Z,8.23
2022-09-28T16:03:22.869Z,12.02
2022-09-28T16:06:10.243Z,13.45
2022-09-28T16:08:38.064Z,11.38
2022-09-28T16:11:37.942Z,11.43
2022-09-28T16:14:16.207Z,8.55
2022-09-28T16:16:48.371Z,10.88
2022-09-28T16:19:27.661Z,7.93
2022-09-28T16:21:59.418Z,7.45
2022-09-28T16:24:30.357Z,8.32
2022-09-28T16:30:24.874Z,8.82
2022-09-28T16:32:58.926Z,8.10
2022-09-28T16:35:28.459Z,10.27
2022-09-28T16:38:09.005Z,9.32
2022-09-28T16:40:39.800Z,17.05
2022-09-28T16:43:08.105Z,11.40
2022-09-28T16:45:35.211Z,12.20
2022-09-28T16:48:02.944Z,14.07
2022-09-28T16:50:29.331Z,12.80
2022-09-28T16:53:32.737Z,28.33
2022-09-28T16:56:00.223Z,9.00
2022-09-28T16:58:27.738Z,11.52
2022-09-28T17:00:54.765Z,11.35
2022-09-28T17:03:23.341Z,10.18
2022-09-28T17:05:51.078Z,13.88
2022-09-28T17:08:21.640Z,15.75
2022-09-28T17:13:40.901Z,10.90
2022-09-28T17:16:13.095Z,10.23
2022-09-28T17:18:40.131Z,8.43
2022-09-28T17:21:11.752Z,9.93
2022-09-28T17:23:38.187Z,22.38
2022-09-28T17:26:05.459Z,13.57
2022-09-28T17:28:33.913Z,28.40
2022-09-28T17:31:01.006Z,11.52
2022-09-28T17:33:28.202Z,8.73
2022-09-28T17:36:00.546Z,10.45
2022-09-28T17:38:27.257Z,14.15
2022-09-28T17:40:53.779Z,13.63
2022-09-28T17:43:22.113Z,10.15
2022-09-28T17:45:50.328Z,13.80
2022-09-28T17:48:22.846Z,11.75
2022-09-28T17:50:49.354Z,20.98
2022-09-28T17:53:15.861Z,15.15
2022-09-28T17:55:43.147Z,13.07
2022-09-28T17:58:22.152Z,17.08
2022-09-28T18:00:50.781Z,15.32
2022-09-28T18:03:22.386Z,13.10
2022-09-28T18:05:53.589Z,20.30
2022-09-28T18:08:21.452Z,16.85
2022-09-28T18:10:47.890Z,15.35
2022-09-28T18:13:14.980Z,18.08
2022-09-28T18:15:41.780Z,14.25
2022-09-28T18:18:09.566Z,15.00
2022-09-28T18:20:37.092Z,13.32
2022-09-28T18:23:03.714Z,15.27
2022-09-28T18:25:30.125Z,15.82
2022-09-28T18:27:57.496Z,17.60
2022-09-28T18:30:24.720Z,24.40
2022-09-28T18:32:51.357Z,15.25
2022-09-28T18:35:22.613Z,15.73
2022-09-28T18:37:49.920Z,12.43
2022-09-28T18:40:16.354Z,16.08
2022-09-28T18:42:42.786Z,14.73
2022-09-28T18:45:13.749Z,12.15
2022-09-28T18:47:40.296Z,14.38
2022-09-28T18:50:07.209Z,13.73
2022-09-28T18:52:37.820Z,16.67
2022-09-28T18:55:06.052Z,19.27
2022-09-28T18:57:35.617Z,16.52
2022-09-28T19:00:07.126Z,19.42
2022-09-28T19:02:33.730Z,15.93
2022-09-28T19:05:00.229Z,15.25
2022-09-28T19:07:27.364Z,15.48
2022-09-28T19:09:54.058Z,15.55
2022-09-28T19:12:20.845Z,15.10
2022-09-28T19:14:47.284Z,16.17
2022-09-28T19:17:13.729Z,16.08
2022-09-28T19:19:42.591Z,18.73
2022-09-28T19:22:09.122Z,16.70
2022-09-28T19:24:35.766Z,13.85
2022-09-28T19:27:02.352Z,11.32
2022-09-28T19:29:28.955Z,15.65
2022-09-28T19:31:56.660Z,16.52
2022-09-28T19:34:26.901Z,18.55
2022-09-28T19:36:53.310Z,17.50
2022-09-28T19:39:19.791Z,16.23
2022-09-28T19:41:52.406Z,41.05
2022-09-28T19:44:27.192Z,14.55
2022-09-28T19:47:04.743Z,14.43
2022-09-28T19:49:37.054Z,17.27
2022-09-28T19:52:15.581Z,14.90
2022-09-28T19:54:44.935Z,15.98
2022-09-28T19:57:14.374Z,16.52
2022-09-28T19:59:40.833Z,16.48
2022-09-28T20:02:08.009Z,13.18
2022-09-28T20:04:34.754Z,13.15
2022-09-28T20:07:01.676Z,20.98
2022-09-28T20:09:28.122Z,26.58
2022-09-28T20:11:54.979Z,17.58
2022-09-28T20:14:23.429Z,17.88
2022-09-28T20:16:52.329Z,15.48
2022-09-28T20:19:21.439Z,15.73
2022-09-28T20:21:48.307Z,12.93
2022-09-28T20:24:16.973Z,17.58
2022-09-28T20:26:44.568Z,14.50
2022-09-28T20:29:11.386Z,13.13
2022-09-28T20:31:37.955Z,17.48
2022-09-28T20:34:05.657Z,12.07
2022-09-28T20:36:32.342Z,15.95
2022-09-28T20:39:02.773Z,18.33
2022-09-28T20:41:36.479Z,14.43
2022-09-28T20:44:05.998Z,13.80
2022-09-28T20:46:34.072Z,17.52
2022-09-28T20:49:00.763Z,12.43
2022-09-28T20:51:27.289Z,16.58
2022-09-28T20:53:56.394Z,17.95
2022-09-28T20:56:31.547Z,14.70
2022-09-28T20:58:58.014Z,15.30
2022-09-28T21:01:26.867Z,15.85
2022-09-28T21:04:01.678Z,15.10
2022-09-28T21:06:33.819Z,14.32
2022-09-28T21:09:00.517Z,17.40
2022-09-28T21:11:28.558Z,15.77
2022-09-28T21:14:00.105Z,28.23
2022-09-28T21:16:28.758Z,16.63
2022-09-28T21:18:55.732Z,18.60
2022-09-28T21:21:23.630Z,14.55
2022-09-28T21:23:54.412Z,16.27
2022-09-28T21:26:25.909Z,18.27
2022-09-28T21:28:57.824Z,13.52
2022-09-28T21:31:28.756Z,15.10
2022-09-28T21:33:56.747Z,11.98
2022-09-28T21:36:23.244Z,19.00
2022-09-28T21:38:49.745Z,18.50
2022-09-28T21:41:16.407Z,13.80
2022-09-28T21:43:42.861Z,13.18
2022-09-28T21:46:09.927Z,14.18
2022-09-28T21:48:36.396Z,13.55
2022-09-28T21:51:05.427Z,16.05
2022-09-28T21:53:37.010Z,19.10
2022-09-28T21:56:05.621Z,17.05
2022-09-28T21:58:33.945Z,16.88
2022-09-28T22:01:13.071Z,14.77
2022-09-28T22:03:39.664Z,19.17
2022-09-28T22:06:06.558Z,18.80
2022-09-28T22:08:33.646Z,15.30
2022-09-28T22:11:08.427Z,16.90
2022-09-28T22:13:40.801Z,15.23
2022-09-28T22:16:08.235Z,12.48
2022-09-28T22:18:35.241Z,19.08
2022-09-28T22:21:12.020Z,19.50
2022-09-28T22:23:39.747Z,15.75
2022-09-28T22:26:08.037Z,14.50
2022-09-28T22:28:34.652Z,14.15
2022-09-28T22:31:01.167Z,12.80
2022-09-28T22:33:27.724Z,12.52
2022-09-28T22:35:54.896Z,12.82
2022-09-28T22:38:23.220Z,20.33
2022-09-28T22:40:55.426Z,18.67
2022-09-28T22:43:23.686Z,17.60
2022-09-28T22:45:50.444Z,11.88
2022-09-28T22:48:17.289Z,15.35
2022-09-28T22:50:51.069Z,16.48
2022-09-28T22:53:18.380Z,14.00
2022-09-28T22:55:44.779Z,22.80
2022-09-28T22:58:12.652Z,20.73
2022-09-28T23:00:39.681Z,12.73
2022-09-28T23:03:06.163Z,12.73
2022-09-28T23:05:33.012Z,15.27
2022-09-28T23:07:59.426Z,18.88
2022-09-28T23:10:25.834Z,15.77
2022-09-28T23:12:55.131Z,14.43
2022-09-28T23:15:22.701Z,14.02
2022-09-28T23:17:52.821Z,15.40
2022-09-28T23:20:23.587Z,15.52
2022-09-28T23:22:50.011Z,14.45
2022-09-28T23:25:18.375Z,15.45
2022-09-28T23:27:49.556Z,13.75
2022-09-28T23:32:43.476Z,15.95
2022-09-28T23:35:10.523Z,13.48
2022-09-28T23:37:37.646Z,14.55
2022-09-28T23:40:05.695Z,15.00
2022-09-28T23:42:32.421Z,16.00
2022-09-28T23:44:58.828Z,16.55
2022-09-28T23:47:25.271Z,12.82
2022-09-28T23:49:51.681Z,13.93
2022-09-28T23:52:18.072Z,14.65
2022-09-28T23:54:44.599Z,14.43
2022-09-28T23:57:10.980Z,13.20
2022-09-28T23:59:37.445Z,13.73
